createdAt,value
2023-08-08T00:00:14.597Z,13.87
2023-08-08T00:02:44.335Z,18.13
2023-08-08T00:05:12.675Z,19.33
2023-08-08T00:07:41.003Z,9.93
2023-08-08T00:10:10.351Z,20.23
2023-08-08T00:12:38.568Z,7.83
2023-08-08T00:15:08.268Z,12.60
2023-08-08T00:17:36.686Z,10.87
2023-08-08T00:20:08.404Z,14.27
2023-08-08T00:22:36.589Z,16.83
2023-08-08T00:25:05.237Z,17.63
2023-08-08T00:27:33.775Z,13.13
2023-08-08T00:30:02.951Z,13.30
2023-08-08T00:32:31.397Z,9.10
2023-08-08T00:34:59.730Z,21.90
2023-08-08T00:37:29.303Z,14.30
2023-08-08T00:39:57.660Z,13.63
2023-08-08T00:42:25.979Z,18.60
2023-08-08T00:44:54.368Z,14.30
2023-08-08T00:47:22.602Z,20.53
2023-08-08T00:49:50.821Z,6.40
2023-08-08T00:52:19.020Z,23.53
2023-08-08T00:54:48.748Z,17.37
2023-08-08T00:57:17.175Z,18.30
2023-08-08T00:59:45.625Z,17.37
2023-08-08T01:02:14.257Z,20.63
2023-08-08T01:04:43.264Z,12.63
2023-08-08T01:07:18.717Z,16.53
2023-08-08T01:09:55.431Z,16.50
2023-08-08T01:12:25.110Z,15.17
2023-08-08T01:14:53.583Z,18.30
2023-08-08T01:17:23.659Z,12.30
2023-08-08T01:19:52.548Z,13.47
2023-08-08T01:22:27.617Z,19.97
2023-08-08T01:24:58.161Z,7.57
2023-08-08T01:27:26.505Z,19.70
2023-08-08T01:29:55.465Z,19.10
2023-08-08T01:32:23.710Z,20.37
2023-08-08T01:34:56.197Z,12.53
2023-08-08T01:37:31.377Z,13.83
2023-08-08T01:40:02.889Z,10.47
2023-08-08T01:42:31.865Z,6.67
2023-08-08T01:45:00.856Z,16.77
2023-08-08T01:47:29.120Z,12.93
2023-08-08T01:49:57.532Z,18.83
2023-08-08T01:52:26.150Z,9.57
2023-08-08T01:54:54.334Z,16.80
2023-08-08T01:57:23.898Z,16.23
2023-08-08T01:59:52.250Z,14.77
2023-08-08T02:02:20.446Z,18.70
2023-08-08T02:04:48.711Z,19.20
2023-08-08T02:07:18.406Z,19.20
2023-08-08T02:09:47.305Z,15.40
2023-08-08T02:12:15.425Z,17.23
2023-08-08T02:14:44.928Z,11.00
2023-08-08T02:17:14.194Z,15.63
2023-08-08T02:19:42.328Z,21.03
2023-08-08T02:22:11.675Z,16.37
2023-08-08T02:24:40.110Z,13.77
2023-08-08T02:27:08.741Z,17.30
2023-08-08T02:29:36.841Z,16.87
2023-08-08T02:32:07.466Z,14.50
2023-08-08T02:34:35.651Z,17.17
2023-08-08T02:37:03.815Z,15.40
2023-08-08T02:39:32.797Z,13.23
2023-08-08T02:42:01.236Z,8.00
2023-08-08T02:44:30.339Z,18.73
2023-08-08T02:46:58.724Z,11.17
2023-08-08T02:49:28.245Z,13.07
2023-08-08T02:51:56.383Z,10.50
2023-08-08T02:54:24.807Z,20.67
2023-08-08T02:56:55.820Z,10.47
2023-08-08T02:59:24.068Z,20.67
2023-08-08T03:01:52.422Z,16.60
2023-08-08T03:04:20.757Z,12.20
2023-08-08T03:06:50.387Z,18.87
2023-08-08T03:09:18.735Z,14.47
2023-08-08T03:11:46.864Z,19.03
2023-08-08T03:14:15.295Z,13.70
2023-08-08T03:16:43.826Z,25.73
2023-08-08T03:19:12.720Z,26.13
2023-08-08T03:21:40.880Z,20.60
2023-08-08T03:24:10.574Z,19.20
2023-08-08T03:26:38.751Z,17.53
2023-08-08T03:29:10.978Z,19.67
2023-08-08T03:31:39.585Z,17.13
2023-08-08T03:34:07.780Z,22.67
2023-08-08T03:36:36.344Z,16.30
2023-08-08T03:39:05.159Z,22.60
2023-08-08T03:41:34.647Z,21.03
2023-08-08T03:44:04.120Z,17.93
2023-08-08T03:46:33.007Z,18.60
2023-08-08T03:49:01.428Z,15.10
2023-08-08T03:51:29.579Z,18.80
2023-08-08T03:53:57.998Z,20.40
2023-08-08T03:56:26.348Z,20.47
2023-08-08T03:58:55.817Z,19.73
2023-08-08T04:01:24.376Z,29.70
2023-08-08T04:03:52.601Z,15.90
2023-08-08T04:06:20.746Z,23.33
2023-08-08T04:08:49.104Z,17.27
2023-08-08T04:11:17.495Z,17.63
2023-08-08T04:13:45.769Z,14.43
2023-08-08T04:16:17.459Z,19.63
2023-08-08T04:18:45.630Z,20.23
2023-08-08T04:21:13.771Z,13.17
2023-08-08T04:23:42.081Z,18.67
2023-08-08T04:26:10.173Z,16.73
2023-08-08T04:28:38.898Z,16.60
2023-08-08T04:31:07.258Z,20.00
2023-08-08T04:33:36.915Z,18.50
2023-08-08T04:36:05.294Z,18.43
2023-08-08T04:38:33.502Z,14.90
2023-08-08T04:41:02.687Z,20.23
2023-08-08T04:43:30.987Z,14.90
2023-08-08T04:45:59.554Z,16.97
2023-08-08T04:48:28.062Z,9.73
2023-08-08T04:50:57.688Z,14.20
2023-08-08T04:53:25.803Z,14.00
2023-08-08T04:55:55.663Z,16.00
2023-08-08T04:58:23.853Z,19.70
2023-08-08T05:00:52.928Z,18.47
2023-08-08T05:03:21.305Z,9.70
2023-08-08T05:05:49.682Z,9.77
2023-08-08T05:08:19.490Z,9.87
2023-08-08T05:10:47.613Z,12.87
2023-08-08T05:13:15.880Z,13.93
2023-08-08T05:15:44.075Z,14.87
2023-08-08T05:18:12.264Z,10.17
2023-08-08T05:20:41.133Z,5.03
2023-08-08T05:23:09.488Z,16.77
2023-08-08T05:25:39.079Z,16.87
2023-08-08T05:28:08.009Z,15.13
2023-08-08T05:30:36.455Z,14.57
2023-08-08T05:33:04.756Z,10.23
2023-08-08T05:35:33.107Z,12.77
2023-08-08T05:38:01.598Z,9.50
2023-08-08T05:40:30.007Z,11.80
2023-08-08T05:42:59.538Z,12.33
2023-08-08T05:45:27.819Z,10.30
2023-08-08T05:47:56.735Z,11.13
2023-08-08T05:50:25.117Z,12.80
2023-08-08T05:52:53.696Z,16.60
2023-08-08T05:55:22.033Z,17.40
2023-08-08T05:57:50.182Z,7.90
2023-08-08T06:00:20.795Z,10.93
2023-08-08T06:02:48.924Z,11.50
2023-08-08T06:05:19.038Z,13.50
2023-08-08T06:07:47.394Z,13.33
2023-08-08T06:10:16.789Z,9.57
2023-08-08T06:12:45.215Z,11.97
2023-08-08T06:15:15.872Z,11.90
2023-08-08T06:17:45.524Z,10.73
2023-08-08T06:20:13.951Z,16.60
2023-08-08T06:22:43.001Z,17.47
2023-08-08T06:25:13.357Z,13.67
2023-08-08T06:27:41.604Z,10.27
2023-08-08T06:30:10.706Z,10.50
2023-08-08T06:32:39.280Z,8.57
2023-08-08T06:35:10.740Z,13.07
2023-08-08T06:37:40.374Z,13.33
2023-08-08T06:40:11.162Z,13.27
2023-08-08T06:42:39.391Z,15.20
2023-08-08T06:45:08.689Z,13.67
2023-08-08T06:47:37.035Z,15.93
2023-08-08T06:50:06.430Z,11.60
2023-08-08T06:52:36.033Z,9.83
2023-08-08T06:55:04.747Z,8.30
2023-08-08T06:57:35.930Z,12.57
2023-08-08T07:00:07.276Z,14.77
2023-08-08T07:02:35.612Z,10.67
2023-08-08T07:05:05.108Z,21.47
2023-08-08T07:07:34.503Z,14.57
2023-08-08T07:10:08.256Z,14.27
2023-08-08T07:12:36.944Z,17.30
2023-08-08T07:15:05.824Z,7.17
2023-08-08T07:17:33.931Z,10.80
2023-08-08T07:20:02.306Z,18.07
2023-08-08T07:22:30.559Z,17.97
2023-08-08T07:24:58.912Z,21.20
2023-08-08T07:27:29.258Z,23.07
2023-08-08T07:29:57.687Z,17.87
2023-08-08T07:32:25.814Z,26.23
2023-08-08T07:34:54.046Z,19.63
2023-08-08T07:37:22.324Z,20.53
2023-08-08T07:39:53.552Z,17.00
2023-08-08T07:42:21.836Z,28.80
2023-08-08T07:44:51.689Z,25.00
2023-08-08T07:47:20.276Z,18.20
2023-08-08T07:49:51.662Z,24.83
2023-08-08T07:52:19.817Z,16.00
2023-08-08T07:54:48.097Z,20.30
2023-08-08T07:57:16.356Z,27.80
2023-08-08T07:59:44.955Z,13.47
2023-08-08T08:02:14.593Z,15.47
2023-08-08T08:04:42.853Z,19.33
2023-08-08T08:07:15.713Z,15.70
2023-08-08T08:09:44.655Z,13.93
2023-08-08T08:12:13.065Z,24.97
2023-08-08T08:14:41.294Z,22.57
2023-08-08T08:17:10.252Z,22.33
2023-08-08T08:19:40.063Z,19.00
2023-08-08T08:22:08.243Z,15.07
2023-08-08T08:24:36.913Z,22.30
2023-08-08T08:27:05.725Z,16.57
2023-08-08T08:29:34.248Z,17.87
2023-08-08T08:32:03.456Z,12.70
2023-08-08T08:34:32.086Z,13.63
2023-08-08T08:37:04.090Z,13.13
2023-08-08T08:39:36.457Z,17.27
2023-08-08T08:42:09.289Z,20.63
2023-08-08T08:44:40.583Z,10.73
2023-08-08T08:47:12.657Z,20.13
2023-08-08T08:49:41.953Z,18.97
2023-08-08T08:52:11.896Z,15.57
2023-08-08T08:54:40.818Z,14.00
2023-08-08T08:57:10.780Z,17.80
2023-08-08T08:59:39.003Z,14.10
2023-08-08T09:02:08.128Z,18.23
2023-08-08T09:04:37.190Z,20.30
2023-08-08T09:07:08.689Z,24.67
2023-08-08T09:09:38.871Z,9.47
2023-08-08T09:12:10.843Z,18.60
2023-08-08T09:14:42.684Z,16.57
2023-08-08T09:17:14.748Z,18.77
2023-08-08T09:19:45.508Z,22.27
2023-08-08T09:22:15.572Z,26.60
2023-08-08T09:24:47.644Z,26.10
2023-08-08T09:27:16.380Z,17.67
2023-08-08T09:29:44.929Z,31.50
2023-08-08T09:32:16.865Z,20.50
2023-08-08T09:34:45.487Z,22.83
2023-08-08T09:37:14.660Z,19.63
2023-08-08T09:39:45.049Z,24.53
2023-08-08T09:42:13.414Z,27.57
2023-08-08T09:44:41.605Z,19.07
2023-08-08T09:47:15.142Z,25.53
2023-08-08T09:49:44.218Z,23.67
2023-08-08T09:52:13.260Z,21.73
2023-08-08T09:54:43.005Z,16.77
2023-08-08T09:57:15.734Z,17.30
2023-08-08T09:59:46.308Z,15.27
2023-08-08T10:02:17.314Z,18.50
2023-08-08T10:04:47.736Z,12.87
2023-08-08T10:07:16.414Z,13.17
2023-08-08T10:09:44.990Z,12.00
2023-08-08T10:12:18.344Z,18.73
2023-08-08T10:14:49.896Z,16.73
2023-08-08T10:17:22.430Z,23.03
2023-08-08T10:19:55.782Z,26.20
2023-08-08T10:22:26.551Z,32.07
2023-08-08T10:24:56.309Z,19.87
2023-08-08T10:27:34.993Z,26.60
2023-08-08T10:30:08.319Z,20.37
2023-08-08T10:32:44.142Z,20.63
2023-08-08T10:35:13.934Z,27.30
2023-08-08T10:37:42.846Z,21.30
2023-08-08T10:40:12.753Z,29.10
2023-08-08T10:42:46.515Z,23.17
2023-08-08T10:45:16.873Z,24.87
2023-08-08T10:47:47.320Z,17.57
2023-08-08T10:50:16.794Z,20.67
2023-08-08T10:52:56.737Z,26.33
2023-08-08T10:55:26.805Z,16.47
2023-08-08T10:58:01.734Z,17.27
2023-08-08T11:00:32.182Z,24.23
2023-08-08T11:03:01.647Z,21.67
2023-08-08T11:05:32.547Z,30.40
2023-08-08T11:08:01.907Z,25.10
2023-08-08T11:10:37.026Z,23.67
2023-08-08T11:13:08.940Z,30.73
2023-08-08T11:15:39.908Z,23.50
2023-08-08T11:18:09.565Z,21.03
2023-08-08T11:20:39.992Z,24.40
2023-08-08T11:23:12.202Z,25.30
2023-08-08T11:25:44.458Z,31.20
2023-08-08T11:28:14.848Z,36.17
2023-08-08T11:30:45.013Z,31.53
2023-08-08T11:33:18.949Z,33.83
2023-08-08T11:35:50.144Z,37.53
2023-08-08T11:38:19.948Z,41.03
2023-08-08T11:40:49.298Z,45.30
2023-08-08T11:43:19.048Z,40.03
2023-08-08T11:45:47.756Z,42.30
2023-08-08T11:48:16.009Z,45.70
2023-08-08T11:50:45.822Z,48.70
2023-08-08T11:53:14.430Z,37.43
2023-08-08T11:55:44.068Z,30.90
2023-08-08T11:58:16.965Z,43.90
2023-08-08T12:00:50.949Z,45.70
2023-08-08T12:03:20.200Z,40.83
2023-08-08T12:05:49.048Z,44.13
2023-08-08T12:08:23.196Z,32.03
2023-08-08T12:10:54.553Z,32.50
2023-08-08T12:13:23.790Z,42.87
2023-08-08T12:15:56.432Z,41.50
2023-08-08T12:18:24.891Z,39.33
2023-08-08T12:20:53.038Z,42.77
2023-08-08T12:23:21.618Z,35.17
2023-08-08T12:25:50.061Z,43.87
2023-08-08T12:28:18.229Z,42.13
2023-08-08T12:30:47.457Z,47.50
2023-08-08T12:33:17.314Z,38.37
2023-08-08T12:35:46.880Z,37.70
2023-08-08T12:38:15.758Z,37.47
2023-08-08T12:40:44.752Z,37.07
2023-08-08T12:43:18.664Z,48.93
2023-08-08T12:45:47.702Z,50.87
2023-08-08T12:48:17.885Z,36.07
2023-08-08T12:50:46.137Z,40.40
2023-08-08T12:53:14.871Z,44.13
2023-08-08T12:55:42.967Z,39.27
2023-08-08T12:58:11.224Z,31.13
2023-08-08T13:00:40.364Z,53.27
2023-08-08T13:03:08.941Z,36.93
2023-08-08T13:05:41.218Z,38.30
2023-08-08T13:08:10.057Z,38.00
2023-08-08T13:10:39.065Z,42.13
2023-08-08T13:13:07.252Z,39.90
2023-08-08T13:15:35.438Z,45.07
2023-08-08T13:18:03.694Z,46.53
2023-08-08T13:20:32.069Z,45.07
2023-08-08T13:23:05.275Z,40.83
2023-08-08T13:25:35.630Z,42.83
2023-08-08T13:28:04.344Z,50.13
2023-08-08T13:30:33.984Z,41.17
2023-08-08T13:33:03.377Z,44.70
2023-08-08T13:35:33.752Z,34.70
2023-08-08T13:38:03.978Z,40.70
2023-08-08T13:40:32.107Z,31.37
2023-08-08T13:43:00.504Z,44.37
2023-08-08T13:45:28.996Z,45.07
2023-08-08T13:47:57.350Z,39.47
2023-08-08T13:50:25.585Z,32.80
2023-08-08T13:52:54.522Z,38.33
2023-08-08T13:55:24.274Z,43.50
2023-08-08T13:57:52.422Z,36.30
2023-08-08T14:00:20.862Z,43.57
2023-08-08T14:02:49.194Z,27.87
2023-08-08T14:05:17.438Z,35.80
2023-08-08T14:07:45.711Z,41.97
2023-08-08T14:10:14.022Z,42.10
2023-08-08T14:12:44.016Z,36.27
2023-08-08T14:15:12.302Z,33.17
2023-08-08T14:17:40.778Z,37.57
2023-08-08T14:20:11.013Z,40.17
2023-08-08T14:22:39.379Z,31.70
2023-08-08T14:25:08.284Z,37.93
2023-08-08T14:27:36.508Z,29.73
2023-08-08T14:30:06.975Z,38.00
2023-08-08T14:32:35.406Z,39.20
2023-08-08T14:35:07.545Z,34.23
2023-08-08T14:37:35.765Z,43.77
2023-08-08T14:40:04.643Z,44.00
2023-08-08T14:42:36.214Z,39.10
2023-08-08T14:45:06.748Z,40.40
2023-08-08T14:47:35.305Z,45.97
2023-08-08T14:50:03.758Z,43.10
2023-08-08T14:52:32.381Z,23.77
2023-08-08T14:55:00.621Z,36.77
2023-08-08T14:57:28.797Z,25.67
2023-08-08T14:59:57.134Z,37.77
2023-08-08T15:02:26.823Z,38.80
2023-08-08T15:04:55.443Z,35.73
2023-08-08T15:07:23.850Z,39.83
2023-08-08T15:09:52.544Z,37.00
2023-08-08T15:12:21.139Z,32.37
2023-08-08T15:14:49.984Z,24.60
2023-08-08T15:17:18.566Z,31.03
2023-08-08T15:19:48.058Z,35.23
2023-08-08T15:22:16.624Z,29.17
2023-08-08T15:24:44.866Z,43.63
2023-08-08T15:27:13.137Z,33.57
2023-08-08T15:29:41.760Z,26.63
2023-08-08T15:32:10.044Z,39.10
2023-08-08T15:34:38.510Z,33.97
2023-08-08T15:37:08.537Z,42.70
2023-08-08T15:39:36.972Z,28.27
2023-08-08T15:42:05.724Z,37.03
2023-08-08T15:44:34.141Z,32.50
2023-08-08T15:47:02.823Z,37.10
2023-08-08T15:49:31.843Z,30.77
2023-08-08T15:52:00.533Z,14.70
2023-08-08T15:54:30.329Z,34.70
2023-08-08T15:56:59.022Z,35.40
2023-08-08T15:59:27.749Z,29.37
2023-08-08T16:01:56.094Z,39.30
2023-08-08T16:04:24.221Z,34.10
2023-08-08T16:06:52.697Z,43.57
2023-08-08T16:09:20.826Z,28.90
2023-08-08T16:11:51.743Z,25.43
2023-08-08T16:14:21.182Z,30.07
2023-08-08T16:16:49.310Z,30.03
2023-08-08T16:19:18.111Z,19.57
2023-08-08T16:21:46.392Z,35.67
2023-08-08T16:24:14.499Z,28.67
2023-08-08T16:26:42.568Z,29.13
2023-08-08T16:29:12.524Z,23.30
2023-08-08T16:31:41.044Z,25.93
2023-08-08T16:34:09.344Z,27.87
2023-08-08T16:36:38.694Z,24.03
2023-08-08T16:39:18.087Z,15.60
2023-08-08T16:41:47.403Z,31.20
2023-08-08T16:44:17.012Z,39.97
2023-08-08T16:46:45.277Z,38.57
2023-08-08T16:49:13.492Z,33.10
2023-08-08T16:51:41.876Z,27.37
2023-08-08T16:54:10.344Z,24.60
2023-08-08T16:56:39.098Z,30.57
2023-08-08T16:59:08.813Z,37.83
2023-08-08T17:01:42.610Z,36.07
2023-08-08T17:04:11.843Z,24.57
2023-08-08T17:06:40.828Z,16.37
2023-08-08T17:09:09.390Z,22.93
2023-08-08T17:11:38.569Z,26.67
2023-08-08T17:14:06.968Z,26.17
2023-08-08T17:16:35.787Z,27.77
2023-08-08T17:19:05.991Z,36.00
2023-08-08T17:21:34.343Z,22.17
2023-08-08T17:24:03.419Z,35.10
2023-08-08T17:26:32.082Z,26.97
2023-08-08T17:29:02.833Z,27.70
2023-08-08T17:31:31.393Z,39.67
2023-08-08T17:34:00.659Z,25.30
2023-08-08T17:36:33.261Z,31.63
2023-08-08T17:39:04.259Z,34.10
2023-08-08T17:41:32.901Z,25.27
2023-08-08T17:44:01.073Z,29.23
2023-08-08T17:46:29.312Z,24.83
2023-08-08T17:48:57.668Z,32.77
2023-08-08T17:51:26.108Z,33.77
2023-08-08T17:53:56.020Z,28.37
2023-08-08T17:56:24.301Z,27.10
2023-08-08T17:58:52.405Z,19.73
2023-08-08T18:01:20.573Z,14.87
2023-08-08T18:03:49.185Z,36.83
2023-08-08T18:06:17.355Z,34.63
2023-08-08T18:08:45.893Z,36.83
2023-08-08T18:11:16.049Z,30.00
2023-08-08T18:13:44.525Z,26.00
2023-08-08T18:16:12.877Z,32.80
2023-08-08T18:18:41.134Z,26.10
2023-08-08T18:21:09.268Z,24.10
2023-08-08T18:23:37.946Z,20.33
2023-08-08T18:26:07.088Z,33.87
2023-08-08T18:28:36.927Z,26.73
2023-08-08T18:31:05.069Z,27.57
2023-08-08T18:33:36.752Z,28.17
2023-08-08T18:36:05.789Z,20.70
2023-08-08T18:38:34.639Z,25.67
2023-08-08T18:41:03.358Z,27.50
2023-08-08T18:43:31.785Z,36.20
2023-08-08T18:46:01.672Z,26.63
2023-08-08T18:48:29.997Z,21.50
2023-08-08T18:50:58.438Z,18.20
2023-08-08T18:53:27.232Z,20.23
2023-08-08T18:55:55.749Z,28.27
2023-08-08T18:58:23.873Z,16.00
2023-08-08T19:00:52.705Z,17.20
2023-08-08T19:03:22.777Z,23.83
2023-08-08T19:05:50.999Z,22.60
2023-08-08T19:08:19.452Z,30.37
2023-08-08T19:10:48.295Z,19.03
2023-08-08T19:13:17.805Z,21.23
2023-08-08T19:15:46.246Z,23.67
2023-08-08T19:18:15.222Z,26.67
2023-08-08T19:20:46.300Z,27.23
2023-08-08T19:23:15.584Z,21.30
2023-08-08T19:25:43.951Z,22.73
2023-08-08T19:28:12.171Z,26.23
2023-08-08T19:30:40.747Z,32.83
2023-08-08T19:33:10.168Z,25.77
2023-08-08T19:35:38.428Z,28.30
2023-08-08T19:38:07.942Z,24.57
2023-08-08T19:40:39.427Z,16.80
2023-08-08T19:43:07.589Z,26.77
2023-08-08T19:45:35.697Z,28.60
2023-08-08T19:48:11.040Z,28.53
2023-08-08T19:50:41.939Z,31.37
2023-08-08T19:53:14.377Z,30.57
2023-08-08T19:55:43.733Z,23.70
2023-08-08T19:58:12.445Z,17.07
2023-08-08T20:00:40.787Z,24.10
2023-08-08T20:03:09.112Z,27.87
2023-08-08T20:05:37.488Z,23.77
2023-08-08T20:08:05.937Z,17.33
2023-08-08T20:10:36.593Z,22.40
2023-08-08T20:13:05.403Z,26.00
2023-08-08T20:15:33.940Z,26.60
2023-08-08T20:18:02.376Z,24.40
2023-08-08T20:20:30.632Z,37.33
2023-08-08T20:22:59.164Z,28.87
2023-08-08T20:25:27.413Z,27.77
2023-08-08T20:27:57.215Z,23.33
2023-08-08T20:30:25.875Z,22.57
2023-08-08T20:32:54.492Z,24.17
2023-08-08T20:35:23.501Z,28.23
2023-08-08T20:37:51.660Z,34.67
2023-08-08T20:40:19.965Z,26.87
2023-08-08T20:42:48.764Z,28.70
2023-08-08T20:45:19.650Z,29.27
2023-08-08T20:47:47.761Z,23.03
2023-08-08T20:50:17.002Z,22.87
2023-08-08T20:52:45.592Z,32.90
2023-08-08T20:55:15.088Z,30.57
2023-08-08T20:57:43.368Z,23.00
2023-08-08T21:00:12.942Z,25.07
2023-08-08T21:02:43.491Z,31.00
2023-08-08T21:05:12.204Z,27.30
2023-08-08T21:07:40.405Z,26.50
2023-08-08T21:10:09.690Z,20.80
2023-08-08T21:12:38.719Z,27.87
2023-08-08T21:15:08.237Z,20.87
2023-08-08T21:17:36.641Z,20.73
2023-08-08T21:20:07.652Z,18.60
2023-08-08T21:22:38.804Z,16.60
2023-08-08T21:25:08.543Z,23.30
2023-08-08T21:27:36.908Z,20.53
2023-08-08T21:30:08.305Z,19.03
2023-08-08T21:32:37.270Z,12.87
2023-08-08T21:35:08.062Z,15.90
2023-08-08T21:37:36.350Z,18.77
2023-08-08T21:40:04.916Z,17.30
2023-08-08T21:42:33.395Z,22.03
2023-08-08T21:45:01.736Z,22.30
2023-08-08T21:47:32.356Z,18.63
2023-08-08T21:50:03.537Z,22.97
2023-08-08T21:52:36.957Z,24.67
2023-08-08T21:55:06.079Z,20.73
2023-08-08T21:57:34.541Z,19.50
2023-08-08T22:00:06.304Z,24.70
2023-08-08T22:02:34.551Z,19.10
2023-08-08T22:05:06.162Z,20.33
2023-08-08T22:07:36.431Z,26.57
2023-08-08T22:10:04.942Z,21.60
2023-08-08T22:12:36.099Z,24.83
2023-08-08T22:15:04.866Z,19.23
2023-08-08T22:17:35.995Z,19.10
2023-08-08T22:20:04.471Z,28.27
2023-08-08T22:22:36.689Z,15.50
2023-08-08T22:25:07.165Z,16.77
2023-08-08T22:27:36.965Z,16.63
2023-08-08T22:30:06.337Z,16.83
2023-08-08T22:32:34.623Z,21.37
2023-08-08T22:35:07.596Z,24.83
2023-08-08T22:37:36.058Z,22.53
2023-08-08T22:40:06.369Z,22.70
2023-08-08T22:42:34.636Z,19.47
2023-08-08T22:45:03.253Z,23.83
2023-08-08T22:47:31.797Z,16.80
2023-08-08T22:50:00.622Z,18.37
2023-08-08T22:52:29.305Z,18.37
2023-08-08T22:55:00.901Z,17.70
2023-08-08T22:57:30.668Z,16.57
2023-08-08T22:59:58.841Z,20.50
2023-08-08T23:02:27.842Z,20.30
2023-08-08T23:04:56.187Z,23.47
2023-08-08T23:07:24.889Z,25.63
2023-08-08T23:09:53.033Z,20.43
2023-08-08T23:12:21.908Z,21.70
2023-08-08T23:14:51.477Z,25.10
2023-08-08T23:17:20.033Z,26.10
2023-08-08T23:19:48.423Z,21.57
2023-08-08T23:22:16.570Z,22.97
2023-08-08T23:24:46.312Z,22.20
2023-08-08T23:27:15.815Z,24.50
2023-08-08T23:29:44.132Z,21.37
2023-08-08T23:32:23.182Z,25.97
2023-08-08T23:34:54.019Z,19.73
2023-08-08T23:37:22.221Z,30.67
2023-08-08T23:39:50.695Z,21.90
2023-08-08T23:42:21.314Z,27.67
2023-08-08T23:44:49.577Z,22.20
2023-08-08T23:47:19.389Z,27.87
2023-08-08T23:49:50.498Z,20.17
2023-08-08T23:52:18.683Z,26.63
2023-08-08T23:54:48.685Z,21.87
2023-08-08T23:57:19.088Z,19.97
2023-08-08T23:59:47.258Z,21.90
